»·PEaware :: N701GT KSMF-KCRQ

N701GT :: KSMF-KCRQ

FLIGHT INFORMATION

Flight Status: Arrived
Operator: Privately registered:
United States
More flights under this callsign
Pilot: Anonymous 17564 (17564)
Aircraft: ECLIPSE 500
(EA50)
More flights by this aircraft type
Origin: KSMF Sacramento Intl
United States
Destination: KCRQ McClellan-Palomar
United States
More flights between these airports :: More routes between these airports
Route: FTHIL2 FRA LANDO LEGOZ2
File this flight plan on PilotEdge
Remarks:
Altitude:
(Current/Filed)
33,000ft
Speed:
(Current/Filed)
370kts
Departed: 03-Aug-18 08:45 AM
Arrived: 03-Aug-18 10:16 AM
Distance/Time
Traveled:
394nm/1:31
Distance/Time
To Go:
Arrived

Flight Plot

Page will automatically refresh every two minutes.


Map Options




Map Legend


Flown Route
Filed Route
Departure Airport
Arrival Airport
Navaid (VOR, NDB)
Fix

Horizontal Profiles

Position Reports

Time Latitude Longitude Heading Altitude Ground
Speed
03-Aug-18 08:21 38.680969 -121.597574 179 25ft 0kts
03-Aug-18 08:22 38.680969 -121.597574 179 25ft 0kts
03-Aug-18 08:23 38.680969 -121.597574 179 25ft 0kts
03-Aug-18 08:24 38.680969 -121.597574 179 25ft 0kts
03-Aug-18 08:25 38.680969 -121.597574 179 25ft 0kts
03-Aug-18 08:26 38.680969 -121.597574 179 25ft 0kts
03-Aug-18 08:27 38.680969 -121.597574 179 25ft 0kts
03-Aug-18 08:28 38.680969 -121.597574 179 25ft 0kts
03-Aug-18 08:29 38.680969 -121.597574 179 25ft 0kts
03-Aug-18 08:30 38.680969 -121.597574 179 25ft 0kts
03-Aug-18 08:31 38.680969 -121.597574 179 25ft 0kts
03-Aug-18 08:32 38.680969 -121.597574 179 25ft 0kts
03-Aug-18 08:33 38.680969 -121.597574 179 25ft 0kts
03-Aug-18 08:34 38.680969 -121.597574 179 25ft 0kts
03-Aug-18 08:35 38.680969 -121.597574 179 25ft 0kts
03-Aug-18 08:36 38.680914 -121.597822 276 25ft 0kts
03-Aug-18 08:37 38.681821 -121.598849 342 25ft 8kts
03-Aug-18 08:38 38.684686 -121.598839 0 25ft 13kts
03-Aug-18 08:39 38.688628 -121.598761 1 25ft 12kts
03-Aug-18 08:40 38.692112 -121.598700 359 25ft 18kts
03-Aug-18 08:41 38.697723 -121.598600 0 25ft 13kts
03-Aug-18 08:42 38.702006 -121.598531 0 25ft 18kts
03-Aug-18 08:43 38.705858 -121.598473 359 25ft 11kts
03-Aug-18 08:44 38.707196 -121.599548 271 25ft 0kts
03-Aug-18 08:45 38.707196 -121.599548 271 25ft 0kts
03-Aug-18 08:46 38.705705 -121.601108 178 25ft 47kts
03-Aug-18 08:47 38.676516 -121.596207 126 1128ft 143kts
03-Aug-18 08:48 38.653857 -121.551708 121 3493ft 160kts
03-Aug-18 08:49 38.629645 -121.504351 122 5952ft 165kts
03-Aug-18 08:50 38.605926 -121.458123 126 7997ft 176kts
03-Aug-18 08:51 38.578022 -121.404457 125 10086ft 188kts
03-Aug-18 08:52 38.549073 -121.348921 125 12012ft 198kts
03-Aug-18 08:53 38.521464 -121.295810 125 13633ft 207kts
03-Aug-18 08:54 38.491135 -121.237629 126 15232ft 216kts
03-Aug-18 08:55 38.458110 -121.174425 127 16814ft 224kts
03-Aug-18 08:56 38.423152 -121.107614 129 18378ft 229kts
03-Aug-18 08:57 38.387597 -121.039896 130 19848ft 233kts
03-Aug-18 08:58 38.351519 -120.971367 132 21223ft 236kts
03-Aug-18 08:59 38.314692 -120.901625 132 22447ft 242kts
03-Aug-18 09:00 38.276678 -120.829756 132 23577ft 249kts
03-Aug-18 09:01 38.237751 -120.756278 133 24652ft 255kts
03-Aug-18 09:02 38.197631 -120.680709 133 25662ft 262kts
03-Aug-18 09:03 38.156534 -120.603474 133 26599ft 269kts
03-Aug-18 09:04 38.121333 -120.537448 133 27360ft 274kts
03-Aug-18 09:05 38.078279 -120.456903 133 28203ft 281kts
03-Aug-18 09:06 38.033530 -120.375135 134 29116ft 286kts
03-Aug-18 09:07 37.980706 -120.280108 135 30026ft 293kts
03-Aug-18 09:08 37.938368 -120.214880 160 30601ft 277kts
03-Aug-18 09:09 37.873441 -120.163810 162 31304ft 279kts
03-Aug-18 09:10 37.806911 -120.113406 162 31977ft 284kts
03-Aug-18 09:11 37.738610 -120.062348 163 32598ft 289kts
03-Aug-18 09:12 37.668568 -120.010334 162 32992ft 303kts
03-Aug-18 09:13 37.592097 -119.953713 161 32995ft 335kts
03-Aug-18 09:14 37.508942 -119.892176 160 33000ft 360kts
03-Aug-18 09:15 37.420185 -119.826739 159 33003ft 378kts
03-Aug-18 09:16 37.328003 -119.758966 159 33003ft 392kts
03-Aug-18 09:17 37.232561 -119.689038 159 33005ft 402kts
03-Aug-18 09:18 37.135093 -119.617826 158 33006ft 410kts
03-Aug-18 09:19 37.032439 -119.560799 167 33006ft 404kts
03-Aug-18 09:20 36.927291 -119.510426 166 33005ft 407kts
03-Aug-18 09:21 36.824770 -119.461293 166 33005ft 409kts
03-Aug-18 09:22 36.718769 -119.410707 166 33008ft 411kts
03-Aug-18 09:23 36.612715 -119.360246 166 33013ft 411kts
03-Aug-18 09:24 36.508000 -119.310572 166 33003ft 411kts
03-Aug-18 09:25 36.401676 -119.260278 166 33006ft 410kts
03-Aug-18 09:26 36.295410 -119.210167 166 33006ft 409kts
03-Aug-18 09:27 36.190955 -119.161034 166 33007ft 401kts
03-Aug-18 09:28 36.086611 -119.112079 166 33008ft 401kts
03-Aug-18 09:29 35.982421 -119.063352 166 33008ft 400kts
03-Aug-18 09:30 35.881510 -119.016320 166 33008ft 402kts
03-Aug-18 09:31 35.785040 -118.971466 166 33006ft 402kts
03-Aug-18 09:32 35.691519 -118.928090 166 33002ft 402kts
03-Aug-18 09:33 35.587767 -118.880130 166 33001ft 402kts
03-Aug-18 09:34 35.482909 -118.831770 165 33001ft 402kts
03-Aug-18 09:35 35.380149 -118.784407 165 33009ft 402kts
03-Aug-18 09:36 35.276080 -118.736678 165 33045ft 402kts
03-Aug-18 09:37 35.173218 -118.689621 165 33044ft 404kts
03-Aug-18 09:38 35.069837 -118.642402 165 32061ft 394kts
03-Aug-18 09:39 34.968666 -118.609915 176 31105ft 382kts
03-Aug-18 09:40 34.870957 -118.592289 175 30187ft 377kts
03-Aug-18 09:41 34.768588 -118.574364 175 29201ft 371kts
03-Aug-18 09:42 34.667814 -118.556987 175 28215ft 364kts
03-Aug-18 09:43 34.570092 -118.540218 175 27241ft 357kts
03-Aug-18 09:44 34.472907 -118.523594 175 26254ft 350kts
03-Aug-18 09:45 34.378389 -118.507483 175 25205ft 344kts
03-Aug-18 09:46 34.289057 -118.492280 175 24071ft 336kts
03-Aug-18 09:47 34.199763 -118.477113 174 22913ft 329kts
03-Aug-18 09:48 34.119886 -118.463572 174 21855ft 323kts
03-Aug-18 09:49 34.031556 -118.448633 174 20660ft 316kts
03-Aug-18 09:50 33.945736 -118.434417 179 19470ft 309kts
03-Aug-18 09:51 33.866712 -118.457049 197 18312ft 298kts
03-Aug-18 09:52 33.787784 -118.484266 197 17119ft 292kts
03-Aug-18 09:53 33.710870 -118.511378 197 15929ft 287kts
03-Aug-18 09:54 33.634767 -118.538326 197 15037ft 285kts
03-Aug-18 09:55 33.556648 -118.565987 197 15046ft 297kts
03-Aug-18 09:56 33.476469 -118.582219 157 14604ft 309kts
03-Aug-18 09:57 33.425710 -118.504791 122 13137ft 296kts
03-Aug-18 09:58 33.384622 -118.420190 119 11940ft 291kts
03-Aug-18 09:59 33.363955 -118.330358 100 11052ft 287kts
03-Aug-18 10:00 33.351732 -118.238255 99 11037ft 288kts
03-Aug-18 10:01 33.339022 -118.143935 99 10459ft 283kts
03-Aug-18 10:02 33.326693 -118.051370 99 9356ft 280kts
03-Aug-18 10:03 33.314497 -117.960286 99 8255ft 275kts
03-Aug-18 10:04 33.302485 -117.870701 99 7156ft 271kts
03-Aug-18 10:05 33.290555 -117.782133 99 6999ft 271kts
03-Aug-18 10:06 33.278797 -117.693446 97 6435ft 269kts
03-Aug-18 10:07 33.267260 -117.605530 99 5701ft 266kts
03-Aug-18 10:08 33.254868 -117.518835 99 5030ft 261kts
03-Aug-18 10:09 33.241167 -117.433221 101 4974ft 263kts
03-Aug-18 10:10 33.227745 -117.351901 101 3994ft 224kts
03-Aug-18 10:11 33.215440 -117.274462 101 3600ft 252kts
03-Aug-18 10:12 33.203120 -117.197216 101 2999ft 238kts
03-Aug-18 10:13 33.169816 -117.160410 206 2781ft 156kts
03-Aug-18 10:14 33.146376 -117.198796 236 2071ft 133kts
03-Aug-18 10:15 33.134911 -117.238394 256 1136ft 120kts
03-Aug-18 10:16 33.129503 -117.272409 257 315ft 89kts
03-Aug-18 10:17 33.127554 -117.279359 93 303ft 7kts
03-Aug-18 10:18 33.127933 -117.276899 81 303ft 8kts
03-Aug-18 10:19 33.127368 -117.274805 124 303ft 1kts
03-Aug-18 10:20 33.127321 -117.274604 79 303ft 0kts
03-Aug-18 10:21 33.127321 -117.274604 79 303ft 0kts
03-Aug-18 10:22 33.127321 -117.274604 79 303ft 0kts
03-Aug-18 10:23 33.127321 -117.274604 79 303ft 0kts
03-Aug-18 10:24 33.127321 -117.274604 79 303ft 0kts
03-Aug-18 10:25 33.127321 -117.274604 79 303ft 0kts
03-Aug-18 10:26 33.127321 -117.274604 79 303ft 0kts
03-Aug-18 10:27 33.127321 -117.274604 79 303ft 0kts

Navigation Log

Ident Type
Flight plan parsing failed, navigation log unavailable